Time;durP1;ratioP1;P1;durP2;ratioP2;P2;SDS_P1;SDS_P2;PMS_P1;PMS_P2;Temp;Humidity;BMP_temperature;BMP_pressure;BME280_temperature;BME280_humidity;BME280_pressure;Samples;Min_cycle;Max_cycle;Signal;HPM_P1;HPM_P2
2023/02/10 00:00:46;;;;;;;285.33;55.22;;;4.80;96.50;;;;;;5048007;28;20029;-74
2023/02/10 00:03:11;;;;;;;349.25;55.92;;;4.70;96.50;;;;;;5048753;28;20100;-74
2023/02/10 00:05:37;;;;;;;235.05;53.30;;;4.70;96.40;;;;;;5049566;28;20456;-75
2023/02/10 00:08:02;;;;;;;254.77;54.28;;;4.70;96.50;;;;;;5049094;28;20079;-74
2023/02/10 00:10:28;;;;;;;334.25;58.25;;;4.70;96.60;;;;;;5050029;28;20025;-75
2023/02/10 00:12:53;;;;;;;308.13;58.72;;;4.70;96.70;;;;;;5049242;28;20028;-74
2023/02/10 00:15:19;;;;;;;435.77;66.35;;;4.70;96.70;;;;;;5039609;28;20349;-74
2023/02/10 00:17:45;;;;;;;326.60;61.00;;;4.70;96.80;;;;;;5029928;28;20036;-75
2023/02/10 00:20:10;;;;;;;247.65;54.92;;;4.70;96.90;;;;;;5030005;28;20022;-74
2023/02/10 00:22:36;;;;;;;287.90;59.65;;;4.70;97.00;;;;;;5029812;28;20029;-75
2023/02/10 00:25:02;;;;;;;293.25;55.90;;;4.60;97.00;;;;;;5041565;28;20021;-74
2023/02/10 00:27:27;;;;;;;197.93;54.53;;;4.60;97.10;;;;;;5064697;28;20486;-73
2023/02/10 00:29:53;;;;;;;259.25;53.15;;;4.60;97.10;;;;;;5068308;28;20025;-74
2023/02/10 00:32:19;;;;;;;223.65;51.95;;;4.60;97.50;;;;;;5064735;28;20757;-73
2023/02/10 00:34:45;;;;;;;221.77;51.03;;;4.60;97.30;;;;;;5037946;28;20060;-74
2023/02/10 00:37:11;;;;;;;258.05;51.17;;;4.60;97.40;;;;;;5029542;28;20067;-74
2023/02/10 00:39:37;;;;;;;239.77;53.67;;;4.60;97.40;;;;;;5042181;28;20498;-74
2023/02/10 00:42:02;;;;;;;306.05;58.97;;;4.60;97.40;;;;;;5048616;28;20029;-74
2023/02/10 00:44:28;;;;;;;150.02;47.63;;;4.60;97.40;;;;;;5040062;28;20044;-74
2023/02/10 00:46:53;;;;;;;273.02;53.90;;;4.60;97.40;;;;;;5029013;28;20036;-74
2023/02/10 00:49:19;;;;;;;331.15;56.40;;;4.60;97.50;;;;;;5045432;28;20040;-74
2023/02/10 00:51:45;;;;;;;170.90;50.80;;;4.50;97.50;;;;;;5055538;28;20119;-75
2023/02/10 00:54:12;;;;;;;188.43;49.13;;;4.50;97.60;;;;;;5054661;28;20036;-73
2023/02/10 00:56:39;;;;;;;215.23;52.47;;;4.60;97.70;;;;;;5055673;28;20018;-74
2023/02/10 00:59:05;;;;;;;486.23;69.10;;;4.50;97.70;;;;;;5055581;28;20104;-75
2023/02/10 01:01:30;;;;;;;177.70;48.75;;;4.50;97.70;;;;;;5055658;28;20107;-74
2023/02/10 01:03:56;;;;;;;233.88;51.10;;;4.40;97.80;;;;;;5051928;28;20617;-74
2023/02/10 01:06:23;;;;;;;214.65;47.60;;;4.40;97.90;;;;;;5035469;28;20032;-74
2023/02/10 01:08:48;;;;;;;166.70;47.17;;;4.40;98.00;;;;;;5035713;28;20083;-74
2023/02/10 01:11:14;;;;;;;179.82;49.42;;;4.40;98.10;;;;;;5036040;28;20675;-74
2023/02/10 01:13:41;;;;;;;199.63;50.95;;;4.40;98.20;;;;;;5050554;28;20025;-74
2023/02/10 01:16:11;;;;;;;218.82;47.47;;;4.40;98.20;;;;;;5055394;28;20163;-75
2023/02/10 01:18:40;;;;;;;476.15;60.55;;;4.30;98.10;;;;;;5056424;28;20018;-74
2023/02/10 01:21:11;;;;;;;211.27;47.55;;;4.40;98.10;;;;;;5056137;28;20497;-74
2023/02/10 01:23:37;;;;;;;205.95;45.47;;;4.40;98.10;;;;;;5056012;28;20025;-74
2023/02/10 01:26:03;;;;;;;263.40;49.72;;;4.40;98.00;;;;;;5058272;28;20177;-74
2023/02/10 01:28:29;;;;;;;241.88;48.83;;;4.40;98.00;;;;;;5055299;28;20107;-74
2023/02/10 01:30:54;;;;;;;176.80;45.53;;;4.40;97.90;;;;;;5035890;28;20025;-74
2023/02/10 01:33:20;;;;;;;196.02;47.53;;;4.40;97.90;;;;;;5036658;28;20033;-74
2023/02/10 01:35:45;;;;;;;316.70;48.03;;;4.40;97.70;;;;;;5036215;28;20284;-73
2023/02/10 01:38:12;;;;;;;183.63;42.95;;;4.40;97.70;;;;;;5037648;28;20049;-73
2023/02/10 01:40:37;;;;;;;154.88;40.80;;;4.40;97.60;;;;;;5056218;28;20021;-74
2023/02/10 01:43:14;;;;;;;113.90;39.03;;;4.30;97.60;;;;;;5056512;28;20124;-74
2023/02/10 01:45:40;;;;;;;191.75;43.60;;;4.30;97.60;;;;;;5040778;28;20398;-74
2023/02/10 01:48:07;;;;;;;167.82;40.72;;;4.30;97.60;;;;;;5036202;28;20104;-75
2023/02/10 01:50:45;;;;;;;193.65;42.47;;;4.20;97.50;;;;;;5044790;28;20047;-74
2023/02/10 01:53:11;;;;;;;135.80;40.15;;;4.20;97.60;;;;;;5055777;28;20036;-74
2023/02/10 01:55:40;;;;;;;158.75;39.38;;;4.20;97.60;;;;;;5041469;28;20025;-74
2023/02/10 01:58:10;;;;;;;124.22;38.40;;;4.10;97.50;;;;;;5036499;28;20052;-74
2023/02/10 02:00:36;;;;;;;152.25;39.00;;;4.10;97.60;;;;;;5033024;28;20062;-74
2023/02/10 02:03:03;;;;;;;241.02;43.72;;;4.10;97.60;;;;;;5036587;28;20036;-74
2023/02/10 02:05:40;;;;;;;200.70;42.88;;;4.00;97.60;;;;;;5051344;28;20025;-74
2023/02/10 02:08:24;;;;;;;219.25;42.88;;;3.90;97.60;;;;;;5053333;28;20025;-74
2023/02/10 02:11:08;;;;;;;244.40;41.78;;;3.90;97.70;;;;;;5052919;28;20471;-74
2023/02/10 02:13:58;;;;;;;196.13;40.15;;;3.90;97.70;;;;;;5049482;28;20550;-74
2023/02/10 02:16:24;;;;;;;;;;;3.90;97.70;;;;;;5053600;28;20060;-74
2023/02/10 02:19:10;;;;;;;247.07;42.10;;;3.90;97.80;;;;;;5052419;28;19940;-74
2023/02/10 02:22:10;;;;;;;142.60;39.03;;;3.80;97.80;;;;;;5052860;28;20024;-73
2023/02/10 02:24:45;;;;;;;;;;;3.80;97.90;;;;;;5051083;28;20133;-74
2023/02/10 02:27:45;;;;;;;190.65;40.70;;;3.80;98.00;;;;;;5065592;28;19926;-74
2023/02/10 02:30:44;;;;;;;133.23;37.60;;;3.80;97.90;;;;;;5065526;28;20032;-74
2023/02/10 02:33:21;;;;;;;152.48;40.17;;;3.80;97.90;;;;;;5050810;28;20601;-74
2023/02/10 02:35:54;;;;;;;145.40;39.08;;;3.70;98.00;;;;;;5051624;28;20407;-74
2023/02/10 02:38:22;;;;;;;141.75;39.25;;;3.70;98.10;;;;;;5051754;28;20163;-74
2023/02/10 02:40:49;;;;;;;147.88;39.88;;;3.70;98.20;;;;;;5041539;28;20022;-73
2023/02/10 02:43:15;;;;;;;122.03;38.67;;;3.70;98.20;;;;;;5033917;28;20041;-73
2023/02/10 02:45:56;;;;;;;173.55;41.90;;;3.70;98.20;;;;;;5051468;28;20028;-74
2023/02/10 02:48:52;;;;;;;210.70;43.08;;;3.70;98.30;;;;;;5049544;28;20040;-74
2023/02/10 02:51:41;;;;;;;117.07;41.63;;;3.70;98.20;;;;;;5030821;28;20033;-74
2023/02/10 02:54:10;;;;;;;141.23;41.55;;;3.80;98.20;;;;;;5031257;28;20104;-74
2023/02/10 02:56:50;;;;;;;100.10;39.60;;;3.80;98.20;;;;;;5031138;28;20030;-74
2023/02/10 02:59:25;;;;;;;119.55;40.47;;;3.80;98.20;;;;;;5029107;28;20014;-73
2023/02/10 03:01:59;;;;;;;104.03;39.90;;;3.80;98.20;;;;;;5031092;28;20033;-73
2023/02/10 03:04:30;;;;;;;84.18;38.92;;;3.70;98.10;;;;;;5030497;28;20056;-73
2023/02/10 03:06:56;;;;;;;128.88;40.85;;;3.80;98.20;;;;;;5030867;28;20045;-74
2023/02/10 03:09:22;;;;;;;91.70;38.92;;;3.70;98.10;;;;;;5030649;28;20024;-74
2023/02/10 03:11:47;;;;;;;99.13;39.53;;;3.80;98.10;;;;;;5030536;28;20491;-74
2023/02/10 03:14:13;;;;;;;113.68;40.63;;;3.80;98.10;;;;;;5030815;28;20026;-74
2023/02/10 03:16:39;;;;;;;141.35;41.15;;;3.80;98.10;;;;;;5030202;28;20018;-74
2023/02/10 03:19:05;;;;;;;129.65;39.53;;;3.80;98.10;;;;;;5036364;28;20103;-73
2023/02/10 03:21:31;;;;;;;145.75;43.42;;;3.80;98.10;;;;;;5050971;28;20570;-74
2023/02/10 03:23:56;;;;;;;157.75;40.63;;;3.80;98.00;;;;;;5050881;28;20044;-73
2023/02/10 03:26:22;;;;;;;253.93;44.55;;;3.80;98.00;;;;;;5056767;28;20540;-74
2023/02/10 03:28:48;;;;;;;255.40;46.47;;;3.80;98.00;;;;;;5061613;28;20025;-74
2023/02/10 03:31:13;;;;;;;128.93;40.50;;;3.80;97.90;;;;;;5030775;28;20029;-76
2023/02/10 03:33:39;;;;;;;152.85;41.35;;;3.70;97.80;;;;;;5030178;28;20949;-74
2023/02/10 03:36:05;;;;;;;228.13;44.25;;;3.80;97.90;;;;;;5035618;28;20429;-74
2023/02/10 03:38:30;;;;;;;172.40;41.83;;;3.70;97.90;;;;;;5049389;28;20030;-75
2023/02/10 03:40:56;;;;;;;166.75;40.45;;;3.70;97.80;;;;;;5048115;28;20491;-74
2023/02/10 03:43:22;;;;;;;181.52;41.53;;;3.70;97.80;;;;;;5049347;28;20450;-73
2023/02/10 03:45:48;;;;;;;116.35;40.15;;;3.70;97.70;;;;;;5043025;28;20021;-74
2023/02/10 03:48:15;;;;;;;134.85;40.90;;;3.70;97.70;;;;;;5044580;28;20025;-74
2023/02/10 03:50:41;;;;;;;121.68;40.17;;;3.70;97.60;;;;;;5047832;28;20029;-74
2023/02/10 03:53:07;;;;;;;145.05;43.08;;;3.70;97.60;;;;;;5049981;28;20386;-74
2023/02/10 03:55:33;;;;;;;108.90;41.15;;;3.70;97.50;;;;;;5048798;28;20053;-74
2023/02/10 03:58:00;;;;;;;140.57;40.97;;;3.70;97.50;;;;;;5038851;28;20060;-74
2023/02/10 04:00:26;;;;;;;247.77;47.03;;;3.60;97.50;;;;;;5029819;28;20033;-73
2023/02/10 04:02:52;;;;;;;127.53;48.38;;;3.60;97.50;;;;;;5029625;28;20036;-74
2023/02/10 04:05:18;;;;;;;160.98;51.28;;;3.60;97.50;;;;;;5029579;28;20025;-73
2023/02/10 04:07:44;;;;;;;190.57;46.20;;;3.60;97.50;;;;;;5029879;28;20432;-74
2023/02/10 04:10:09;;;;;;;160.85;43.20;;;3.60;97.40;;;;;;5042538;28;20033;-74
2023/02/10 04:12:35;;;;;;;129.73;39.67;;;3.60;97.30;;;;;;5049048;28;20411;-74
2023/02/10 04:15:01;;;;;;;248.40;44.55;;;3.60;97.40;;;;;;5049679;28;20051;-74
2023/02/10 04:17:26;;;;;;;177.32;42.20;;;3.60;97.30;;;;;;5049461;28;20187;-74
2023/02/10 04:19:52;;;;;;;218.27;46.60;;;3.60;97.20;;;;;;5036706;28;20614;-73
2023/02/10 04:22:18;;;;;;;139.63;44.22;;;3.60;97.10;;;;;;5029166;28;20029;-75
2023/02/10 04:24:49;;;;;;;121.97;40.05;;;3.60;97.10;;;;;;5028791;28;20041;-74
2023/02/10 04:27:15;;;;;;;156.07;41.58;;;3.60;97.20;;;;;;5057401;28;20044;-74
2023/02/10 04:29:41;;;;;;;143.52;41.05;;;3.60;97.20;;;;;;5048608;28;20475;-73
2023/02/10 04:32:07;;;;;;;187.80;49.05;;;3.50;97.30;;;;;;5030262;28;20030;-74
2023/02/10 04:34:34;;;;;;;136.10;43.55;;;3.50;97.30;;;;;;5048011;28;20025;-74
2023/02/10 04:37:00;;;;;;;136.25;43.03;;;3.50;97.60;;;;;;5049256;28;20419;-74
2023/02/10 04:39:25;;;;;;;166.70;43.50;;;3.50;97.30;;;;;;5048074;28;20107;-73
2023/02/10 04:41:51;;;;;;;214.35;47.88;;;3.50;97.40;;;;;;5049109;28;20039;-73
2023/02/10 04:44:17;;;;;;;182.57;43.42;;;3.50;97.40;;;;;;5048870;28;20118;-73
2023/02/10 04:46:43;;;;;;;154.85;43.13;;;3.60;97.40;;;;;;5049405;28;20056;-74
2023/02/10 04:49:08;;;;;;;220.13;48.97;;;3.60;97.40;;;;;;5048128;28;20502;-74
2023/02/10 04:51:34;;;;;;;137.20;45.35;;;3.60;97.50;;;;;;5048855;28;20103;-74
2023/02/10 04:54:00;;;;;;;170.07;48.03;;;3.60;97.50;;;;;;5048205;28;20017;-74
2023/02/10 04:56:25;;;;;;;212.23;53.13;;;3.60;97.60;;;;;;5048742;28;20116;-74
2023/02/10 04:58:51;;;;;;;145.48;48.20;;;3.60;97.60;;;;;;5047085;28;20037;-74
2023/02/10 05:01:16;;;;;;;182.27;48.50;;;3.60;97.80;;;;;;5036308;28;20033;-73
2023/02/10 05:03:42;;;;;;;172.52;48.58;;;3.60;97.90;;;;;;5048852;28;20033;-74
2023/02/10 05:06:10;;;;;;;263.25;51.28;;;3.50;97.90;;;;;;5047755;28;20025;-73
2023/02/10 05:08:40;;;;;;;126.80;46.17;;;3.50;98.00;;;;;;5048658;28;20017;-74
2023/02/10 05:11:07;;;;;;;258.88;51.05;;;3.50;98.10;;;;;;5028139;28;20074;-75
2023/02/10 05:13:34;;;;;;;244.88;50.10;;;3.50;98.20;;;;;;5029680;28;20060;-74
2023/02/10 05:16:02;;;;;;;193.00;50.38;;;3.40;98.50;;;;;;5029108;28;20038;-75
2023/02/10 05:18:27;;;;;;;193.65;46.92;;;3.50;98.30;;;;;;5029118;28;20029;-74
2023/02/10 05:20:53;;;;;;;223.93;48.75;;;3.50;98.30;;;;;;5028347;28;20483;-73
2023/02/10 05:23:18;;;;;;;198.40;47.55;;;3.40;98.30;;;;;;5039031;28;20029;-74
2023/02/10 05:25:44;;;;;;;154.23;45.03;;;3.40;98.40;;;;;;5050410;28;20029;-74
2023/02/10 05:28:10;;;;;;;256.83;50.08;;;3.40;98.40;;;;;;5068781;28;20048;-74
2023/02/10 05:30:35;;;;;;;195.90;46.15;;;3.40;98.40;;;;;;5039097;28;20037;-73
2023/02/10 05:33:01;;;;;;;111.40;45.92;;;3.40;98.50;;;;;;5028552;28;20029;-74
2023/02/10 05:35:26;;;;;;;127.38;47.70;;;3.40;98.40;;;;;;5031399;28;20027;-74
2023/02/10 05:37:52;;;;;;;127.38;44.85;;;3.40;98.40;;;;;;5032650;28;20112;-74
2023/02/10 05:40:18;;;;;;;131.02;45.97;;;3.40;98.40;;;;;;5046105;28;20029;-74
2023/02/10 05:42:43;;;;;;;119.50;46.35;;;3.40;98.40;;;;;;5050548;28;20017;-74
2023/02/10 05:45:09;;;;;;;142.30;46.08;;;3.50;98.40;;;;;;5052283;28;20029;-75
2023/02/10 05:47:35;;;;;;;142.60;44.42;;;3.50;98.40;;;;;;5048715;28;20021;-73
2023/02/10 05:50:01;;;;;;;189.05;47.00;;;3.50;98.30;;;;;;5039902;28;20035;-74
2023/02/10 05:52:27;;;;;;;183.25;46.88;;;3.50;98.20;;;;;;5050563;28;20383;-74
2023/02/10 05:54:53;;;;;;;337.58;52.33;;;3.50;98.10;;;;;;5050864;28;20032;-74
2023/02/10 05:57:18;;;;;;;211.63;47.78;;;3.50;98.00;;;;;;5050762;28;20029;-74
2023/02/10 05:59:44;;;;;;;144.23;46.00;;;3.50;97.90;;;;;;5049867;28;20024;-73
2023/02/10 06:02:10;;;;;;;128.73;48.05;;;3.50;97.90;;;;;;5049744;28;20057;-76
2023/02/10 06:04:36;;;;;;;125.57;44.60;;;3.60;97.90;;;;;;5040294;28;20403;-74
2023/02/10 06:07:01;;;;;;;211.35;46.80;;;3.50;97.90;;;;;;5030542;28;20585;-74
2023/02/10 06:09:27;;;;;;;147.73;43.15;;;3.50;97.90;;;;;;5030561;28;20026;-75
2023/02/10 06:11:53;;;;;;;243.48;47.35;;;3.50;97.90;;;;;;5031027;28;20091;-75
2023/02/10 06:14:19;;;;;;;312.05;53.80;;;3.60;97.90;;;;;;5030576;28;20026;-75
2023/02/10 06:16:44;;;;;;;182.65;48.63;;;3.60;97.70;;;;;;5030902;28;20022;-74
2023/02/10 06:19:10;;;;;;;323.27;53.20;;;3.60;97.40;;;;;;5031023;28;20033;-74
2023/02/10 06:21:36;;;;;;;159.02;49.70;;;3.60;97.40;;;;;;5030938;28;20025;-75
2023/02/10 06:24:01;;;;;;;205.32;50.72;;;3.60;97.70;;;;;;5030926;28;20049;-75
2023/02/10 06:26:27;;;;;;;209.73;51.63;;;3.60;97.70;;;;;;5046112;28;20032;-75
2023/02/10 06:28:53;;;;;;;381.05;62.22;;;3.60;97.70;;;;;;5069979;28;20016;-75
2023/02/10 06:31:19;;;;;;;266.88;57.63;;;3.60;97.40;;;;;;5054084;28;20017;-74
2023/02/10 06:33:45;;;;;;;267.52;55.30;;;3.60;97.40;;;;;;5050149;28;20090;-75
2023/02/10 06:36:11;;;;;;;210.77;52.50;;;3.60;97.40;;;;;;5051495;28;20398;-77
2023/02/10 06:38:37;;;;;;;277.52;55.53;;;3.60;97.50;;;;;;5051169;28;20029;-74
2023/02/10 06:41:04;;;;;;;187.38;51.70;;;3.60;97.50;;;;;;5051064;28;20967;-74
2023/02/10 06:43:29;;;;;;;170.88;52.70;;;3.60;97.60;;;;;;5048540;28;20359;-74
2023/02/10 06:45:55;;;;;;;132.48;48.03;;;3.60;97.70;;;;;;5050657;28;20036;-75
2023/02/10 06:48:20;;;;;;;257.10;54.95;;;3.60;97.70;;;;;;5050951;28;20021;-75
2023/02/10 06:50:47;;;;;;;122.35;49.97;;;3.50;97.80;;;;;;5051216;28;20032;-74
2023/02/10 06:53:12;;;;;;;154.02;52.05;;;3.60;97.80;;;;;;5037422;28;20033;-75
2023/02/10 06:55:38;;;;;;;206.90;54.13;;;3.50;97.90;;;;;;5049399;28;20028;-74
2023/02/10 06:58:04;;;;;;;291.70;63.47;;;3.50;98.00;;;;;;5050556;28;20384;-75
2023/02/10 07:00:32;;;;;;;162.32;52.55;;;3.50;98.00;;;;;;5050234;28;20021;-75
2023/02/10 07:02:58;;;;;;;250.35;59.90;;;3.50;98.00;;;;;;5050799;28;20071;-75
2023/02/10 07:05:24;;;;;;;123.32;53.58;;;3.50;98.00;;;;;;5032648;28;20034;-75
2023/02/10 07:07:50;;;;;;;160.82;56.50;;;3.50;98.00;;;;;;5030585;28;20028;-74
2023/02/10 07:10:17;;;;;;;165.25;55.45;;;3.60;98.10;;;;;;5030833;28;20104;-74
2023/02/10 07:12:43;;;;;;;126.28;54.42;;;3.60;98.10;;;;;;5029928;28;20111;-74
2023/02/10 07:15:09;;;;;;;147.68;54.75;;;3.60;98.00;;;;;;5048628;28;20190;-75
2023/02/10 07:17:36;;;;;;;142.95;56.35;;;3.60;98.00;;;;;;5050604;28;20027;-75
2023/02/10 07:20:03;;;;;;;151.55;52.15;;;3.60;98.00;;;;;;5050605;28;20099;-74
2023/02/10 07:22:28;;;;;;;122.47;52.83;;;3.60;98.10;;;;;;5050247;28;20079;-74
2023/02/10 07:24:54;;;;;;;143.32;53.45;;;3.60;98.20;;;;;;5031810;28;20037;-74
2023/02/10 07:27:19;;;;;;;177.73;54.55;;;3.60;98.20;;;;;;5058104;28;20123;-73
2023/02/10 07:29:45;;;;;;;293.05;61.05;;;3.60;98.20;;;;;;5070246;28;20056;-75
2023/02/10 07:32:11;;;;;;;165.40;58.42;;;3.60;98.20;;;;;;5066121;28;20097;-75
2023/02/10 07:34:36;;;;;;;154.50;58.55;;;3.60;98.20;;;;;;5050275;28;20063;-74
2023/02/10 07:37:02;;;;;;;229.55;63.35;;;3.60;98.20;;;;;;5030771;28;20472;-73
2023/02/10 07:39:27;;;;;;;272.85;62.08;;;3.60;98.20;;;;;;5041950;28;20027;-74
2023/02/10 07:41:53;;;;;;;206.10;60.00;;;3.60;98.10;;;;;;5050006;28;20025;-74
2023/02/10 07:44:22;;;;;;;142.50;55.05;;;3.50;98.20;;;;;;5049857;28;20121;-74
2023/02/10 07:46:50;;;;;;;146.00;49.60;;;3.50;98.20;;;;;;5050199;28;20544;-74
2023/02/10 07:49:16;;;;;;;312.33;59.78;;;3.50;98.20;;;;;;5049736;28;20116;-75
2023/02/10 07:51:42;;;;;;;188.32;57.63;;;3.40;98.10;;;;;;5049883;28;20522;-75
2023/02/10 07:54:08;;;;;;;332.77;62.65;;;3.20;98.20;;;;;;5048058;28;20025;-75
2023/02/10 07:56:34;;;;;;;49.92;28.60;;;3.10;98.40;;;;;;5048222;28;20403;-74
2023/02/10 07:58:59;;;;;;;47.92;23.17;;;3.20;99.10;;;;;;5047423;28;20102;-74
2023/02/10 08:01:25;;;;;;;136.98;44.65;;;3.60;99.80;;;;;;5044831;28;20039;-74
2023/02/10 08:03:50;;;;;;;147.90;45.60;;;3.70;99.40;;;;;;5047926;28;20111;-73
2023/02/10 08:06:24;;;;;;;240.70;47.72;;;3.70;98.80;;;;;;5048286;28;20044;-73
2023/02/10 08:08:49;;;;;;;194.65;47.75;;;3.70;98.10;;;;;;5049248;28;20036;-73
2023/02/10 08:11:16;;;;;;;136.00;45.70;;;3.50;97.70;;;;;;5048091;28;20032;-73
2023/02/10 08:13:41;;;;;;;160.48;46.85;;;3.40;97.80;;;;;;5049365;28;20029;-73
2023/02/10 08:16:08;;;;;;;117.40;43.25;;;3.40;97.80;;;;;;5049443;28;20032;-73
2023/02/10 08:18:34;;;;;;;141.15;44.63;;;3.20;97.90;;;;;;5049257;28;20106;-73
2023/02/10 08:21:01;;;;;;;139.13;46.70;;;3.20;98.00;;;;;;5047959;28;20109;-73
2023/02/10 08:23:26;;;;;;;155.32;49.28;;;3.10;98.10;;;;;;5048982;28;20033;-74
2023/02/10 08:25:52;;;;;;;301.33;57.85;;;3.10;98.20;;;;;;5048898;28;20032;-74
2023/02/10 08:28:19;;;;;;;265.52;56.63;;;3.10;98.30;;;;;;5048505;28;20103;-74
2023/02/10 08:30:44;;;;;;;127.03;49.47;;;3.10;98.30;;;;;;5047450;28;20147;-74
2023/02/10 08:33:10;;;;;;;163.88;49.65;;;3.10;98.60;;;;;;5048872;28;20483;-74
2023/02/10 08:35:37;;;;;;;132.88;45.35;;;3.20;98.40;;;;;;5049322;28;20060;-73
2023/02/10 08:38:03;;;;;;;160.90;50.90;;;3.10;98.30;;;;;;5048590;28;20031;-74
2023/02/10 08:40:29;;;;;;;377.83;62.63;;;3.10;98.50;;;;;;5049356;28;20086;-74
2023/02/10 08:42:55;;;;;;;128.20;50.35;;;3.00;98.50;;;;;;5048867;28;20052;-74
2023/02/10 08:45:21;;;;;;;135.52;49.10;;;3.00;98.60;;;;;;5048645;28;20517;-73
2023/02/10 08:47:46;;;;;;;128.07;47.55;;;3.10;98.80;;;;;;5048031;28;20086;-74
2023/02/10 08:50:12;;;;;;;101.35;42.72;;;3.00;98.80;;;;;;5047591;28;20514;-74
2023/02/10 08:52:38;;;;;;;180.63;49.75;;;2.90;99.00;;;;;;5046254;28;20037;-74
2023/02/10 08:55:07;;;;;;;155.32;47.78;;;2.90;99.20;;;;;;5046416;28;20106;-74
2023/02/10 08:57:33;;;;;;;108.28;48.08;;;2.90;99.20;;;;;;5041836;28;20120;-74
2023/02/10 08:59:59;;;;;;;112.20;47.33;;;3.00;99.20;;;;;;5069026;28;20483;-72
2023/02/10 09:02:24;;;;;;;94.50;42.90;;;3.10;99.30;;;;;;5064735;28;20017;-73
2023/02/10 09:04:50;;;;;;;124.47;47.17;;;3.20;99.30;;;;;;5066225;28;20129;-74
2023/02/10 09:07:16;;;;;;;117.10;45.50;;;3.30;99.20;;;;;;5068901;28;20060;-74
2023/02/10 09:09:42;;;;;;;113.93;44.50;;;3.40;99.20;;;;;;5062664;28;20029;-74
2023/02/10 09:12:11;;;;;;;100.50;44.05;;;3.30;99.00;;;;;;5072647;28;20021;-74
2023/02/10 09:14:38;;;;;;;138.30;43.55;;;3.30;98.80;;;;;;5072913;28;20095;-74
2023/02/10 09:17:04;;;;;;;184.93;51.55;;;3.30;98.90;;;;;;5071396;28;20020;-74
2023/02/10 09:19:30;;;;;;;159.60;48.03;;;3.30;98.80;;;;;;5072735;28;20025;-73
2023/02/10 09:21:56;;;;;;;149.05;44.60;;;3.30;98.80;;;;;;5072513;28;20376;-73
2023/02/10 09:24:23;;;;;;;137.43;49.97;;;3.40;98.90;;;;;;5066741;28;20494;-73
2023/02/10 09:26:49;;;;;;;101.32;47.78;;;3.40;98.90;;;;;;5053829;28;20094;-73
2023/02/10 09:29:15;;;;;;;95.85;45.45;;;3.40;99.00;;;;;;5052845;28;20037;-74
2023/02/10 09:31:41;;;;;;;82.72;38.55;;;3.50;99.10;;;;;;5051003;28;20031;-74
2023/02/10 09:34:06;;;;;;;105.13;42.22;;;3.50;99.00;;;;;;5053805;28;20029;-74
2023/02/10 09:36:32;;;;;;;113.15;41.17;;;3.60;99.00;;;;;;5051521;28;20497;-74
2023/02/10 09:38:58;;;;;;;64.15;33.10;;;3.60;99.00;;;;;;5052564;28;20021;-74
2023/02/10 09:41:29;;;;;;;77.65;36.80;;;3.60;98.80;;;;;;5050276;28;20530;-73
2023/02/10 09:44:16;;;;;;;85.70;39.47;;;3.70;98.90;;;;;;5050300;28;20041;-73
2023/02/10 09:46:44;;;;;;;102.82;42.35;;;3.80;99.00;;;;;;5042757;28;20119;-73
2023/02/10 09:49:37;;;;;;;80.00;35.63;;;3.80;98.80;;;;;;5055628;28;20032;-73
2023/02/10 09:52:18;;;;;;;76.45;38.67;;;3.90;98.70;;;;;;5043362;28;20086;-73
2023/02/10 09:54:45;;;;;;;76.72;38.40;;;3.90;98.70;;;;;;5051860;28;20035;-73
2023/02/10 09:57:18;;;;;;;84.82;41.10;;;3.90;98.70;;;;;;5053010;28;20094;-74
2023/02/10 09:59:49;;;;;;;79.40;37.90;;;4.00;98.70;;;;;;5043400;28;20071;-73
2023/02/10 10:02:33;;;;;;;89.60;43.58;;;4.00;98.70;;;;;;5051345;28;20017;-74
2023/02/10 10:05:03;;;;;;;99.70;44.40;;;4.00;98.70;;;;;;5051546;28;20033;-73
2023/02/10 10:07:35;;;;;;;90.72;42.17;;;4.10;98.80;;;;;;5051057;28;20067;-74
2023/02/10 10:10:03;;;;;;;88.65;44.20;;;4.20;98.80;;;;;;5049067;28;20036;-74
2023/02/10 10:12:29;;;;;;;92.43;43.88;;;4.30;98.80;;;;;;5049657;28;20051;-73
2023/02/10 10:14:56;;;;;;;85.50;41.08;;;4.30;98.60;;;;;;5048426;28;20040;-73
2023/02/10 10:17:40;;;;;;;84.15;39.85;;;4.30;98.60;;;;;;5055896;28;20527;-73
2023/02/10 10:20:27;;;;;;;79.72;37.97;;;4.40;98.50;;;;;;5071493;28;20371;-73
2023/02/10 10:23:17;;;;;;;74.20;34.08;;;4.40;98.60;;;;;;5070425;28;20024;-74
2023/02/10 10:26:03;;;;;;;80.63;39.07;;;4.40;98.60;;;;;;5071270;28;20033;-73
2023/02/10 10:28:31;;;;;;;73.53;35.88;;;4.60;98.70;;;;;;5050174;28;20056;-73
2023/02/10 10:30:59;;;;;;;81.13;41.72;;;4.70;98.70;;;;;;5058131;28;20033;-73
2023/02/10 10:33:51;;;;;;;78.95;38.90;;;4.80;98.90;;;;;;5049281;28;20025;-73
2023/02/10 10:36:38;;;;;;;73.05;34.65;;;5.00;98.70;;;;;;5059360;28;20090;-73
2023/02/10 10:39:16;;;;;;;71.10;35.83;;;5.10;98.40;;;;;;5050275;28;20039;-73
2023/02/10 10:41:43;;;;;;;77.65;38.65;;;5.20;98.00;;;;;;5051075;28;20025;-74
2023/02/10 10:44:14;;;;;;;76.45;39.67;;;5.30;98.10;;;;;;5051161;28;20029;-72
2023/02/10 10:46:48;;;;;;;65.95;35.40;;;5.50;98.20;;;;;;5062913;28;20032;-74
2023/02/10 10:49:15;;;;;;;70.03;35.63;;;5.80;98.10;;;;;;5049241;28;20482;-74
2023/02/10 10:51:41;;;;;;;74.43;38.13;;;6.20;98.10;;;;;;5051139;28;20033;-73
2023/02/10 10:54:14;;;;;;;60.75;33.63;;;6.50;97.00;;;;;;5050949;28;20025;-73
2023/02/10 10:57:01;;;;;;;60.92;33.50;;;6.90;96.50;;;;;;5050925;28;20021;-74
2023/02/10 10:59:41;;;;;;;61.10;32.72;;;7.30;95.40;;;;;;5050874;28;20027;-74
2023/02/10 11:02:12;;;;;;;59.33;33.75;;;7.50;94.90;;;;;;5048337;28;20028;-74
2023/02/10 11:04:41;;;;;;;60.22;32.17;;;7.70;94.60;;;;;;5043369;28;20041;-74
2023/02/10 11:07:10;;;;;;;68.72;32.97;;;8.00;94.20;;;;;;5047430;28;20538;-74
2023/02/10 11:09:40;;;;;;;61.08;31.42;;;8.20;93.00;;;;;;5048696;28;20455;-73
2023/02/10 11:12:32;;;;;;;57.30;31.43;;;8.40;92.70;;;;;;5049705;28;20043;-74
2023/02/10 11:15:00;;;;;;;61.28;35.17;;;8.60;92.30;;;;;;5061374;28;20036;-74
2023/02/10 11:17:39;;;;;;;60.55;32.00;;;8.80;92.50;;;;;;5070282;28;20024;-74
2023/02/10 11:20:25;;;;;;;55.20;29.98;;;9.10;92.10;;;;;;5070656;28;20048;-73
2023/02/10 11:23:13;;;;;;;39.13;21.00;;;9.30;91.60;;;;;;5070634;28;20029;-75
2023/02/10 11:25:38;;;;;;;52.40;31.15;;;9.70;92.80;;;;;;5070282;28;20043;-75
2023/02/10 11:28:15;;;;;;;62.17;33.50;;;9.90;91.90;;;;;;5058760;28;20037;-74
2023/02/10 11:30:41;;;;;;;54.40;32.08;;;10.10;90.40;;;;;;5030401;28;20034;-74
2023/02/10 11:33:23;;;;;;;61.45;32.38;;;10.20;89.80;;;;;;5030059;28;20018;-75
2023/02/10 11:35:57;;;;;;;57.20;30.17;;;10.20;87.80;;;;;;5030211;28;20014;-75
2023/02/10 11:38:25;;;;;;;60.03;30.85;;;10.30;87.90;;;;;;5039057;28;20021;-73
2023/02/10 11:41:00;;;;;;;56.85;30.02;;;10.30;88.00;;;;;;5050145;28;20120;-75
2023/02/10 11:43:40;;;;;;;53.97;28.60;;;10.30;87.20;;;;;;5050115;28;20029;-75
2023/02/10 11:46:17;;;;;;;58.60;31.10;;;10.30;87.20;;;;;;5048332;28;20033;-74
2023/02/10 11:48:59;;;;;;;55.78;31.90;;;10.40;86.70;;;;;;5043812;28;20030;-75
2023/02/10 11:51:25;;;;;;;49.38;25.35;;;10.50;85.80;;;;;;5048696;28;20017;-75
2023/02/10 11:53:51;;;;;;;57.50;29.23;;;10.60;87.00;;;;;;5048874;28;20225;-75
2023/02/10 11:59:20;;;;;;;50.85;27.30;;;10.90;89.30;;;;;;5039451;28;20087;-75
2023/02/10 12:01:54;;;;;;;53.35;26.63;;;10.90;84.80;;;;;;5049480;28;20433;-75
2023/02/10 12:04:42;;;;;;;55.90;28.45;;;11.10;84.30;;;;;;5049558;28;20045;-74
2023/02/10 12:07:27;;;;;;;50.03;26.83;;;11.20;83.80;;;;;;5049850;28;20116;-75
2023/02/10 12:10:18;;;;;;;50.70;25.90;;;11.30;81.20;;;;;;5049682;28;20507;-76
2023/02/10 12:12:53;;;;;;;45.35;23.60;;;11.40;81.30;;;;;;5049410;28;20029;-74
2023/02/10 12:15:30;;;;;;;45.67;23.55;;;11.50;80.20;;;;;;5050360;28;20029;-75
2023/02/10 12:18:17;;;;;;;44.88;21.88;;;11.60;82.00;;;;;;5050516;28;20025;-74
2023/02/10 12:21:26;;;;;;;52.65;26.48;;;11.70;80.30;;;;;;5050630;28;20405;-75
2023/02/10 12:24:00;;;;;;;45.95;22.42;;;11.90;79.70;;;;;;5050259;28;20029;-73
2023/02/10 12:26:51;;;;;;;40.75;18.67;;;12.00;77.30;;;;;;5057318;28;20458;-75
2023/02/10 12:29:39;;;;;;;43.00;20.33;;;12.00;79.30;;;;;;5069958;28;20119;-75
2023/02/10 12:32:11;;;;;;;42.08;20.25;;;11.80;75.60;;;;;;5070034;28;20020;-76
2023/02/10 12:35:08;;;;;;;41.30;21.85;;;11.80;74.70;;;;;;5068777;28;20027;-75
2023/02/10 12:37:48;;;;;;;41.83;19.50;;;11.80;74.30;;;;;;5070106;28;20390;-75
2023/02/10 12:40:55;;;;;;;40.53;21.33;;;11.80;77.00;;;;;;5050288;28;20013;-75
2023/02/10 12:43:20;;;;;;;35.85;17.83;;;12.00;76.10;;;;;;5048196;28;20525;-75